Disclaimer

Please do not use the information listed here in-flight or in-navigation, as they are not provided to us by the airports but are provided by volunteers, so they might be outdated.

Search


Regions


Airport information page

Radio informations:
BAKU TWR - 119.2 MHz
BAKU RADAR - 120.8 MHz
BAKU GND - 121.7 MHz
BAKU PRECISION - 119.2 MHz
BAKU ATIS - 126.8 MHz
BAKU APP - 129.3 MHz

Airport informations:
Latitude: 40° 28' 03.00" N
Longitude: 050° 02' 48.00" E
Elevation: 10 feet - 3 meters
Operating hours: 24 hour operations
Operating agency: Civil government, landing fees and diplomatic clearance may be required
Timezone: UTC+4(+5DT) - Last Sunday in March to last Sunday in October
Fuel: Jet A1+, Jet A1 with icing inhibitor.

Jet fuel avaiable but type is unknown.

Runway information:
16/34 - 8858 x 197 feet< - >2700 x 60 meters
18/36 - 10499 x 167 feet< - >3200 x 51 meters

Recent METARs:
UBBB 182300Z 25003KT 9999 FEW048 SCT100 10/08 Q1024 R88/290060 NOSIG
UBBB 182330Z 30002KT 9999 SCT030 BKN100 09/08 Q1024 R88/190068 NOSIG
UBBB 190000Z 30004KT 9999 SCT025 BKN100 09/08 Q1024 R88/190068 NOSIG

Airport on the map: